sensor_id;sensor_type;location;lat;lon;timestamp;temperature;humidity
23475;DHT22;11910;52.086;21.066;2023-10-09T00:01:01;5.60;99.90
23475;DHT22;11910;52.086;21.066;2023-10-09T00:03:29;5.50;99.90
23475;DHT22;11910;52.086;21.066;2023-10-09T00:05:55;5.50;99.90
23475;DHT22;11910;52.086;21.066;2023-10-09T00:08:21;5.50;99.90
23475;DHT22;11910;52.086;21.066;2023-10-09T00:10:48;5.50;99.90
23475;DHT22;11910;52.086;21.066;2023-10-09T00:13:21;5.50;99.90
23475;DHT22;11910;52.086;21.066;2023-10-09T00:15:55;5.50;99.90
23475;DHT22;11910;52.086;21.066;2023-10-09T00:18:25;5.50;99.90
23475;DHT22;11910;52.086;21.066;2023-10-09T01:26:42;5.10;99.90
23475;DHT22;11910;52.086;21.066;2023-10-09T01:29:20;5.10;99.90
23475;DHT22;11910;52.086;21.066;2023-10-09T01:31:47;5.00;99.90
23475;DHT22;11910;52.086;21.066;2023-10-09T01:34:33;5.10;99.90
23475;DHT22;11910;52.086;21.066;2023-10-09T01:37:09;5.10;99.90
23475;DHT22;11910;52.086;21.066;2023-10-09T01:39:40;5.10;99.90
23475;DHT22;11910;52.086;21.066;2023-10-09T01:44:34;5.20;99.90
23475;DHT22;11910;52.086;21.066;2023-10-09T01:47:03;5.10;99.90
23475;DHT22;11910;52.086;21.066;2023-10-09T01:49:40;5.10;99.90
23475;DHT22;11910;52.086;21.066;2023-10-09T01:52:15;5.10;99.90
23475;DHT22;11910;52.086;21.066;2023-10-09T01:54:45;5.10;99.90
23475;DHT22;11910;52.086;21.066;2023-10-09T01:57:15;5.10;99.90
23475;DHT22;11910;52.086;21.066;2023-10-09T01:59:43;5.10;99.90
23475;DHT22;11910;52.086;21.066;2023-10-09T02:02:10;5.10;99.90
23475;DHT22;11910;52.086;21.066;2023-10-09T02:05:05;5.20;99.90
23475;DHT22;11910;52.086;21.066;2023-10-09T02:07:37;5.20;99.90
23475;DHT22;11910;52.086;21.066;2023-10-09T02:13:06;5.20;99.90
23475;DHT22;11910;52.086;21.066;2023-10-09T02:15:39;5.20;99.90
23475;DHT22;11910;52.086;21.066;2023-10-09T02:18:13;5.20;99.90
23475;DHT22;11910;52.086;21.066;2023-10-09T02:23:29;5.20;99.90
23475;DHT22;11910;52.086;21.066;2023-10-09T02:26:15;5.30;99.90
23475;DHT22;11910;52.086;21.066;2023-10-09T02:28:54;5.30;99.90
23475;DHT22;11910;52.086;21.066;2023-10-09T02:31:29;5.30;99.90
23475;DHT22;11910;52.086;21.066;2023-10-09T02:34:08;5.30;99.90
23475;DHT22;11910;52.086;21.066;2023-10-09T02:36:34;5.30;99.90
23475;DHT22;11910;52.086;21.066;2023-10-09T02:39:14;5.30;99.90
23475;DHT22;11910;52.086;21.066;2023-10-09T02:41:50;5.30;99.90
23475;DHT22;11910;52.086;21.066;2023-10-09T02:44:16;5.40;99.90
23475;DHT22;11910;52.086;21.066;2023-10-09T02:46:43;5.40;99.90
23475;DHT22;11910;52.086;21.066;2023-10-09T02:49:10;5.40;99.90
23475;DHT22;11910;52.086;21.066;2023-10-09T02:51:41;5.40;99.90
23475;DHT22;11910;52.086;21.066;2023-10-09T02:54:07;5.50;99.90
23475;DHT22;11910;52.086;21.066;2023-10-09T02:56:57;5.40;99.90
23475;DHT22;11910;52.086;21.066;2023-10-09T02:59:31;5.50;99.90
23475;DHT22;11910;52.086;21.066;2023-10-09T03:01:56;5.50;99.90
23475;DHT22;11910;52.086;21.066;2023-10-09T03:04:25;5.50;99.90
23475;DHT22;11910;52.086;21.066;2023-10-09T03:06:57;5.50;99.90
23475;DHT22;11910;52.086;21.066;2023-10-09T03:09:23;5.50;99.90
23475;DHT22;11910;52.086;21.066;2023-10-09T03:11:57;5.50;99.90
23475;DHT22;11910;52.086;21.066;2023-10-09T03:14:35;5.60;99.90
23475;DHT22;11910;52.086;21.066;2023-10-09T03:17:01;5.60;99.90
23475;DHT22;11910;52.086;21.066;2023-10-09T03:19:28;5.50;99.90
23475;DHT22;11910;52.086;21.066;2023-10-09T03:21:54;5.60;99.90
23475;DHT22;11910;52.086;21.066;2023-10-09T03:24:27;5.60;99.90
23475;DHT22;11910;52.086;21.066;2023-10-09T03:26:53;5.50;99.90
23475;DHT22;11910;52.086;21.066;2023-10-09T03:29:21;5.50;99.90
23475;DHT22;11910;52.086;21.066;2023-10-09T03:31:47;5.60;99.90
23475;DHT22;11910;52.086;21.066;2023-10-09T03:34:16;5.60;99.90
23475;DHT22;11910;52.086;21.066;2023-10-09T03:36:44;5.60;99.90
23475;DHT22;11910;52.086;21.066;2023-10-09T03:39:09;5.70;99.90
23475;DHT22;11910;52.086;21.066;2023-10-09T03:41:55;5.70;99.90
23475;DHT22;11910;52.086;21.066;2023-10-09T03:44:24;5.70;99.90
23475;DHT22;11910;52.086;21.066;2023-10-09T03:46:53;5.70;99.90
23475;DHT22;11910;52.086;21.066;2023-10-09T03:49:19;5.70;99.90
23475;DHT22;11910;52.086;21.066;2023-10-09T03:51:49;5.70;99.90
23475;DHT22;11910;52.086;21.066;2023-10-09T03:54:15;5.70;99.90
23475;DHT22;11910;52.086;21.066;2023-10-09T03:56:41;5.80;99.90
23475;DHT22;11910;52.086;21.066;2023-10-09T03:59:06;5.80;99.90
23475;DHT22;11910;52.086;21.066;2023-10-09T04:01:36;5.70;99.90
23475;DHT22;11910;52.086;21.066;2023-10-09T04:04:05;5.70;99.90
23475;DHT22;11910;52.086;21.066;2023-10-09T04:06:33;5.80;99.90
23475;DHT22;11910;52.086;21.066;2023-10-09T04:09:06;5.70;99.90
23475;DHT22;11910;52.086;21.066;2023-10-09T04:11:44;5.70;99.90
23475;DHT22;11910;52.086;21.066;2023-10-09T04:14:14;5.80;99.90
23475;DHT22;11910;52.086;21.066;2023-10-09T04:16:59;5.80;99.90
23475;DHT22;11910;52.086;21.066;2023-10-09T04:19:43;5.80;99.90
23475;DHT22;11910;52.086;21.066;2023-10-09T04:22:37;5.90;99.90
23475;DHT22;11910;52.086;21.066;2023-10-09T04:25:15;5.80;99.90
23475;DHT22;11910;52.086;21.066;2023-10-09T04:27:53;5.80;99.90
23475;DHT22;11910;52.086;21.066;2023-10-09T04:30:22;5.80;99.90
23475;DHT22;11910;52.086;21.066;2023-10-09T04:32:49;5.80;99.90
23475;DHT22;11910;52.086;21.066;2023-10-09T04:35:15;5.90;99.90
23475;DHT22;11910;52.086;21.066;2023-10-09T04:37:52;5.90;99.90
23475;DHT22;11910;52.086;21.066;2023-10-09T04:40:25;6.00;99.90
23475;DHT22;11910;52.086;21.066;2023-10-09T04:43:06;5.90;99.90
23475;DHT22;11910;52.086;21.066;2023-10-09T04:45:36;6.00;99.90
23475;DHT22;11910;52.086;21.066;2023-10-09T04:48:20;6.00;99.90
23475;DHT22;11910;52.086;21.066;2023-10-09T04:51:01;6.00;99.90
23475;DHT22;11910;52.086;21.066;2023-10-09T04:53:44;6.00;99.90
23475;DHT22;11910;52.086;21.066;2023-10-09T04:56:13;6.00;99.90
23475;DHT22;11910;52.086;21.066;2023-10-09T04:58:41;6.10;99.90
23475;DHT22;11910;52.086;21.066;2023-10-09T05:01:07;6.10;99.90
23475;DHT22;11910;52.086;21.066;2023-10-09T05:03:39;6.20;99.90
23475;DHT22;11910;52.086;21.066;2023-10-09T05:06:05;6.20;99.90
23475;DHT22;11910;52.086;21.066;2023-10-09T05:08:46;6.20;99.90
23475;DHT22;11910;52.086;21.066;2023-10-09T05:11:13;6.20;99.90
23475;DHT22;11910;52.086;21.066;2023-10-09T05:13:57;6.30;99.90
23475;DHT22;11910;52.086;21.066;2023-10-09T05:16:37;6.30;99.90
23475;DHT22;11910;52.086;21.066;2023-10-09T05:19:09;6.30;99.90
23475;DHT22;11910;52.086;21.066;2023-10-09T05:21:54;6.30;99.90
23475;DHT22;11910;52.086;21.066;2023-10-09T05:24:24;6.30;99.90
23475;DHT22;11910;52.086;21.066;2023-10-09T05:26:52;6.30;99.90
23475;DHT22;11910;52.086;21.066;2023-10-09T05:29:21;6.30;99.90
23475;DHT22;11910;52.086;21.066;2023-10-09T05:31:56;6.30;99.90
23475;DHT22;11910;52.086;21.066;2023-10-09T05:34:22;6.30;99.90
23475;DHT22;11910;52.086;21.066;2023-10-09T05:36:50;6.30;99.90
23475;DHT22;11910;52.086;21.066;2023-10-09T05:39:16;6.30;99.90
23475;DHT22;11910;52.086;21.066;2023-10-09T05:41:44;6.40;99.90
23475;DHT22;11910;52.086;21.066;2023-10-09T05:44:17;6.40;99.90
23475;DHT22;11910;52.086;21.066;2023-10-09T05:47:02;6.40;99.90
23475;DHT22;11910;52.086;21.066;2023-10-09T05:49:46;6.50;99.90
23475;DHT22;11910;52.086;21.066;2023-10-09T05:52:13;6.50;99.90
23475;DHT22;11910;52.086;21.066;2023-10-09T05:54:57;6.50;99.90
23475;DHT22;11910;52.086;21.066;2023-10-09T05:57:40;6.60;99.90
23475;DHT22;11910;52.086;21.066;2023-10-09T06:00:25;6.60;99.90
23475;DHT22;11910;52.086;21.066;2023-10-09T06:03:10;6.70;99.90
23475;DHT22;11910;52.086;21.066;2023-10-09T06:06:03;6.70;99.90
23475;DHT22;11910;52.086;21.066;2023-10-09T06:08:31;6.80;99.90
23475;DHT22;11910;52.086;21.066;2023-10-09T06:11:07;6.90;99.90
23475;DHT22;11910;52.086;21.066;2023-10-09T06:13:51;6.90;99.90
23475;DHT22;11910;52.086;21.066;2023-10-09T06:16:28;6.90;99.90
23475;DHT22;11910;52.086;21.066;2023-10-09T06:19:13;6.90;99.90
23475;DHT22;11910;52.086;21.066;2023-10-09T06:21:45;6.90;99.90
23475;DHT22;11910;52.086;21.066;2023-10-09T06:24:20;6.90;99.90
23475;DHT22;11910;52.086;21.066;2023-10-09T06:26:49;7.10;99.90
23475;DHT22;11910;52.086;21.066;2023-10-09T06:29:24;7.20;99.90
23475;DHT22;11910;52.086;21.066;2023-10-09T06:32:06;7.30;99.90
23475;DHT22;11910;52.086;21.066;2023-10-09T06:37:23;7.30;99.90
23475;DHT22;11910;52.086;21.066;2023-10-09T06:39:53;7.30;99.90
23475;DHT22;11910;52.086;21.066;2023-10-09T06:42:25;7.30;99.90
23475;DHT22;11910;52.086;21.066;2023-10-09T06:45:04;7.40;99.90
23475;DHT22;11910;52.086;21.066;2023-10-09T06:47:36;7.50;99.90
23475;DHT22;11910;52.086;21.066;2023-10-09T06:50:10;7.60;99.90
23475;DHT22;11910;52.086;21.066;2023-10-09T06:52:56;7.60;99.90
23475;DHT22;11910;52.086;21.066;2023-10-09T06:55:38;7.60;99.90
23475;DHT22;11910;52.086;21.066;2023-10-09T06:58:18;7.60;99.90
23475;DHT22;11910;52.086;21.066;2023-10-09T07:00:54;7.60;99.90
23475;DHT22;11910;52.086;21.066;2023-10-09T07:03:23;7.70;99.90
23475;DHT22;11910;52.086;21.066;2023-10-09T07:06:10;7.80;99.90
23475;DHT22;11910;52.086;21.066;2023-10-09T07:09:06;7.80;99.90
23475;DHT22;11910;52.086;21.066;2023-10-09T07:11:35;7.90;99.90
23475;DHT22;11910;52.086;21.066;2023-10-09T07:14:12;7.90;99.90
23475;DHT22;11910;52.086;21.066;2023-10-09T07:17:04;7.80;99.90
23475;DHT22;11910;52.086;21.066;2023-10-09T07:19:41;7.90;99.90
23475;DHT22;11910;52.086;21.066;2023-10-09T07:22:08;7.90;99.90
23475;DHT22;11910;52.086;21.066;2023-10-09T07:24:49;7.90;99.90
23475;DHT22;11910;52.086;21.066;2023-10-09T07:27:19;8.00;99.90
23475;DHT22;11910;52.086;21.066;2023-10-09T07:30:06;8.00;99.90
23475;DHT22;11910;52.086;21.066;2023-10-09T07:32:58;8.20;99.90
23475;DHT22;11910;52.086;21.066;2023-10-09T07:35:43;8.50;99.90
23475;DHT22;11910;52.086;21.066;2023-10-09T07:40:36;8.90;99.90
23475;DHT22;11910;52.086;21.066;2023-10-09T07:43:23;9.10;99.90
23475;DHT22;11910;52.086;21.066;2023-10-09T07:45:53;9.10;99.90
23475;DHT22;11910;52.086;21.066;2023-10-09T07:48:27;9.10;99.90
23475;DHT22;11910;52.086;21.066;2023-10-09T07:51:11;9.00;99.90
23475;DHT22;11910;52.086;21.066;2023-10-09T07:53:37;9.10;99.90
23475;DHT22;11910;52.086;21.066;2023-10-09T07:56:12;9.20;99.90
23475;DHT22;11910;52.086;21.066;2023-10-09T07:58:44;9.30;99.90
23475;DHT22;11910;52.086;21.066;2023-10-09T08:01:13;9.50;99.90
23475;DHT22;11910;52.086;21.066;2023-10-09T08:04:00;9.60;99.90
23475;DHT22;11910;52.086;21.066;2023-10-09T08:06:30;9.80;99.90
23475;DHT22;11910;52.086;21.066;2023-10-09T08:09:06;10.00;99.90
23475;DHT22;11910;52.086;21.066;2023-10-09T08:11:38;10.20;99.90
23475;DHT22;11910;52.086;21.066;2023-10-09T08:14:09;10.40;99.90
23475;DHT22;11910;52.086;21.066;2023-10-09T08:16:49;10.60;99.90
23475;DHT22;11910;52.086;21.066;2023-10-09T08:19:17;10.80;99.90
23475;DHT22;11910;52.086;21.066;2023-10-09T08:22:01;11.00;99.90
23475;DHT22;11910;52.086;21.066;2023-10-09T08:24:45;10.90;99.90
23475;DHT22;11910;52.086;21.066;2023-10-09T08:27:21;11.00;99.90
23475;DHT22;11910;52.086;21.066;2023-10-09T08:30:14;11.10;99.90
23475;DHT22;11910;52.086;21.066;2023-10-09T08:32:42;11.20;99.90
23475;DHT22;11910;52.086;21.066;2023-10-09T08:35:09;11.10;99.90
23475;DHT22;11910;52.086;21.066;2023-10-09T08:37:53;11.10;99.90
23475;DHT22;11910;52.086;21.066;2023-10-09T08:40:20;11.20;99.90
23475;DHT22;11910;52.086;21.066;2023-10-09T08:42:52;11.10;99.90
23475;DHT22;11910;52.086;21.066;2023-10-09T08:45:22;11.10;99.90
23475;DHT22;11910;52.086;21.066;2023-10-09T08:47:55;11.00;99.90
23475;DHT22;11910;52.086;21.066;2023-10-09T08:50:21;11.10;99.90
23475;DHT22;11910;52.086;21.066;2023-10-09T08:52:50;11.10;99.90
23475;DHT22;11910;52.086;21.066;2023-10-09T08:55:16;11.20;99.90
23475;DHT22;11910;52.086;21.066;2023-10-09T08:57:44;11.30;99.90
23475;DHT22;11910;52.086;21.066;2023-10-09T09:00:20;11.50;99.90
23475;DHT22;11910;52.086;21.066;2023-10-09T09:02:50;11.60;99.90
23475;DHT22;11910;52.086;21.066;2023-10-09T09:05:20;11.70;99.90
23475;DHT22;11910;52.086;21.066;2023-10-09T09:07:46;11.90;99.90
23475;DHT22;11910;52.086;21.066;2023-10-09T09:10:13;12.10;99.90
23475;DHT22;11910;52.086;21.066;2023-10-09T09:12:45;12.20;99.90
23475;DHT22;11910;52.086;21.066;2023-10-09T09:15:15;12.30;99.90
23475;DHT22;11910;52.086;21.066;2023-10-09T09:17:44;12.40;99.90
23475;DHT22;11910;52.086;21.066;2023-10-09T09:20:37;12.50;99.90
23475;DHT22;11910;52.086;21.066;2023-10-09T09:23:09;12.70;99.90
23475;DHT22;11910;52.086;21.066;2023-10-09T09:25:45;12.90;99.90
23475;DHT22;11910;52.086;21.066;2023-10-09T09:28:16;12.90;99.90
23475;DHT22;11910;52.086;21.066;2023-10-09T09:30:46;13.00;99.90
23475;DHT22;11910;52.086;21.066;2023-10-09T09:33:21;12.80;99.90
23475;DHT22;11910;52.086;21.066;2023-10-09T09:36:02;12.80;99.90
23475;DHT22;11910;52.086;21.066;2023-10-09T09:38:30;12.80;99.90
23475;DHT22;11910;52.086;21.066;2023-10-09T09:41:17;12.60;99.90
23475;DHT22;11910;52.086;21.066;2023-10-09T09:43:58;12.60;99.90
23475;DHT22;11910;52.086;21.066;2023-10-09T09:46:31;12.50;99.90
23475;DHT22;11910;52.086;21.066;2023-10-09T09:49:04;12.50;99.90
23475;DHT22;11910;52.086;21.066;2023-10-09T09:51:42;12.50;99.90
23475;DHT22;11910;52.086;21.066;2023-10-09T09:54:08;12.60;99.90
23475;DHT22;11910;52.086;21.066;2023-10-09T09:56:37;12.60;99.90
23475;DHT22;11910;52.086;21.066;2023-10-09T09:59:05;12.60;99.90
23475;DHT22;11910;52.086;21.066;2023-10-09T10:01:33;12.60;99.90
23475;DHT22;11910;52.086;21.066;2023-10-09T10:04:12;12.60;99.90
23475;DHT22;11910;52.086;21.066;2023-10-09T10:06:45;12.70;99.90
23475;DHT22;11910;52.086;21.066;2023-10-09T10:12:10;12.80;99.90
23475;DHT22;11910;52.086;21.066;2023-10-09T10:17:24;12.80;99.90
23475;DHT22;11910;52.086;21.066;2023-10-09T10:20:08;12.50;99.90
23475;DHT22;11910;52.086;21.066;2023-10-09T10:22:40;12.60;99.90
23475;DHT22;11910;52.086;21.066;2023-10-09T10:25:33;12.50;99.90
23475;DHT22;11910;52.086;21.066;2023-10-09T10:28:18;12.50;99.90
23475;DHT22;11910;52.086;21.066;2023-10-09T10:41:57;12.30;99.90
23475;DHT22;11910;52.086;21.066;2023-10-09T10:44:30;12.30;99.90
23475;DHT22;11910;52.086;21.066;2023-10-09T11:00:28;12.10;99.90
23475;DHT22;11910;52.086;21.066;2023-10-09T11:03:19;12.20;99.90
23475;DHT22;11910;52.086;21.066;2023-10-09T11:05:55;12.20;99.90
23475;DHT22;11910;52.086;21.066;2023-10-09T11:08:25;12.30;99.90
23475;DHT22;11910;52.086;21.066;2023-10-09T11:27:04;12.20;99.90
23475;DHT22;11910;52.086;21.066;2023-10-09T11:29:33;12.20;99.90
23475;DHT22;11910;52.086;21.066;2023-10-09T11:32:19;12.20;99.90
23475;DHT22;11910;52.086;21.066;2023-10-09T11:35:01;12.30;99.90
23475;DHT22;11910;52.086;21.066;2023-10-09T11:37:34;12.30;99.90
23475;DHT22;11910;52.086;21.066;2023-10-09T11:40:30;12.20;99.90
23475;DHT22;11910;52.086;21.066;2023-10-09T11:43:15;12.30;99.90
23475;DHT22;11910;52.086;21.066;2023-10-09T11:45:41;12.30;99.90
23475;DHT22;11910;52.086;21.066;2023-10-09T12:41:15;12.10;99.90
23475;DHT22;11910;52.086;21.066;2023-10-09T12:43:46;12.10;99.90
23475;DHT22;11910;52.086;21.066;2023-10-09T12:46:11;12.10;99.90
23475;DHT22;11910;52.086;21.066;2023-10-09T12:48:42;12.10;99.90
23475;DHT22;11910;52.086;21.066;2023-10-09T12:51:14;12.00;99.90
23475;DHT22;11910;52.086;21.066;2023-10-09T12:53:43;12.00;99.90
23475;DHT22;11910;52.086;21.066;2023-10-09T12:56:09;11.80;99.90
23475;DHT22;11910;52.086;21.066;2023-10-09T12:58:37;11.90;99.90
23475;DHT22;11910;52.086;21.066;2023-10-09T13:01:04;11.90;99.90
23475;DHT22;11910;52.086;21.066;2023-10-09T13:03:37;11.90;99.90
23475;DHT22;11910;52.086;21.066;2023-10-09T13:06:05;11.90;99.90
23475;DHT22;11910;52.086;21.066;2023-10-09T13:08:40;11.80;99.90
23475;DHT22;11910;52.086;21.066;2023-10-09T13:11:10;11.80;99.90
23475;DHT22;11910;52.086;21.066;2023-10-09T13:13:38;11.80;99.90
23475;DHT22;11910;52.086;21.066;2023-10-09T13:16:20;11.80;99.90
23475;DHT22;11910;52.086;21.066;2023-10-09T13:18:49;11.80;99.90
23475;DHT22;11910;52.086;21.066;2023-10-09T13:21:21;11.80;99.90
23475;DHT22;11910;52.086;21.066;2023-10-09T13:23:47;11.80;99.90
23475;DHT22;11910;52.086;21.066;2023-10-09T13:26:15;11.80;99.90
23475;DHT22;11910;52.086;21.066;2023-10-09T13:28:46;11.80;99.90
23475;DHT22;11910;52.086;21.066;2023-10-09T13:31:13;11.80;99.90
23475;DHT22;11910;52.086;21.066;2023-10-09T13:33:43;11.80;99.90
23475;DHT22;11910;52.086;21.066;2023-10-09T13:36:13;11.80;99.90
23475;DHT22;11910;52.086;21.066;2023-10-09T13:38:54;11.80;99.90
23475;DHT22;11910;52.086;21.066;2023-10-09T13:41:22;11.80;99.90
23475;DHT22;11910;52.086;21.066;2023-10-09T13:43:51;11.80;99.90
23475;DHT22;11910;52.086;21.066;2023-10-09T13:46:17;11.80;99.90
23475;DHT22;11910;52.086;21.066;2023-10-09T13:48:44;11.80;99.90
23475;DHT22;11910;52.086;21.066;2023-10-09T13:51:11;11.90;99.90
23475;DHT22;11910;52.086;21.066;2023-10-09T13:53:45;11.90;99.90
23475;DHT22;11910;52.086;21.066;2023-10-09T13:56:18;11.80;99.90
23475;DHT22;11910;52.086;21.066;2023-10-09T13:58:49;11.80;99.90
23475;DHT22;11910;52.086;21.066;2023-10-09T14:01:19;11.80;99.90
23475;DHT22;11910;52.086;21.066;2023-10-09T14:03:59;11.80;99.90
23475;DHT22;11910;52.086;21.066;2023-10-09T14:06:26;12.00;99.90
23475;DHT22;11910;52.086;21.066;2023-10-09T14:09:03;11.90;99.90
23475;DHT22;11910;52.086;21.066;2023-10-09T14:11:35;12.00;99.90
23475;DHT22;11910;52.086;21.066;2023-10-09T14:14:05;12.00;99.90
23475;DHT22;11910;52.086;21.066;2023-10-09T14:16:38;11.90;99.90
23475;DHT22;11910;52.086;21.066;2023-10-09T14:19:08;11.90;99.90
23475;DHT22;11910;52.086;21.066;2023-10-09T14:21:39;11.90;99.90
23475;DHT22;11910;52.086;21.066;2023-10-09T14:24:07;11.80;99.90
23475;DHT22;11910;52.086;21.066;2023-10-09T14:26:41;11.80;99.90
23475;DHT22;11910;52.086;21.066;2023-10-09T14:29:07;11.90;99.90
23475;DHT22;11910;52.086;21.066;2023-10-09T14:31:33;11.90;99.90
23475;DHT22;11910;52.086;21.066;2023-10-09T14:34:05;11.90;99.90
23475;DHT22;11910;52.086;21.066;2023-10-09T14:36:31;11.90;99.90
23475;DHT22;11910;52.086;21.066;2023-10-09T14:39:02;11.90;99.90
23475;DHT22;11910;52.086;21.066;2023-10-09T14:41:30;11.90;99.90
23475;DHT22;11910;52.086;21.066;2023-10-09T14:43:59;11.80;99.90
23475;DHT22;11910;52.086;21.066;2023-10-09T14:46:26;11.80;99.90
23475;DHT22;11910;52.086;21.066;2023-10-09T14:48:53;11.80;99.90
23475;DHT22;11910;52.086;21.066;2023-10-09T14:51:20;11.70;99.90
23475;DHT22;11910;52.086;21.066;2023-10-09T14:53:55;11.70;99.90
23475;DHT22;11910;52.086;21.066;2023-10-09T14:56:28;11.70;99.90
23475;DHT22;11910;52.086;21.066;2023-10-09T14:58:59;11.60;99.90
23475;DHT22;11910;52.086;21.066;2023-10-09T15:01:29;11.60;99.90
23475;DHT22;11910;52.086;21.066;2023-10-09T15:16:20;11.50;99.90
23475;DHT22;11910;52.086;21.066;2023-10-09T15:18:47;11.40;99.90
23475;DHT22;11910;52.086;21.066;2023-10-09T15:21:20;11.40;99.90
23475;DHT22;11910;52.086;21.066;2023-10-09T15:23:49;11.30;99.90
23475;DHT22;11910;52.086;21.066;2023-10-09T15:26:17;11.30;99.90
23475;DHT22;11910;52.086;21.066;2023-10-09T15:28:42;11.30;99.90
23475;DHT22;11910;52.086;21.066;2023-10-09T15:31:08;11.30;99.90
23475;DHT22;11910;52.086;21.066;2023-10-09T15:33:37;11.20;99.90
23475;DHT22;11910;52.086;21.066;2023-10-09T15:36:15;11.30;99.90
23475;DHT22;11910;52.086;21.066;2023-10-09T15:38:46;11.20;99.90
23475;DHT22;11910;52.086;21.066;2023-10-09T15:41:13;11.10;99.90
23475;DHT22;11910;52.086;21.066;2023-10-09T15:43:40;11.00;99.90
23475;DHT22;11910;52.086;21.066;2023-10-09T15:46:12;11.00;99.90
23475;DHT22;11910;52.086;21.066;2023-10-09T15:48:42;10.80;99.90
23475;DHT22;11910;52.086;21.066;2023-10-09T15:51:12;10.70;99.90
23475;DHT22;11910;52.086;21.066;2023-10-09T15:53:46;10.60;99.90
23475;DHT22;11910;52.086;21.066;2023-10-09T15:56:12;10.40;99.90
23475;DHT22;11910;52.086;21.066;2023-10-09T15:58:42;10.30;99.90
23475;DHT22;11910;52.086;21.066;2023-10-09T16:01:14;10.30;99.90
23475;DHT22;11910;52.086;21.066;2023-10-09T16:03:41;10.20;99.90
23475;DHT22;11910;52.086;21.066;2023-10-09T16:06:11;10.10;99.90
23475;DHT22;11910;52.086;21.066;2023-10-09T16:08:40;10.00;99.90
23475;DHT22;11910;52.086;21.066;2023-10-09T16:11:07;9.90;99.90
23475;DHT22;11910;52.086;21.066;2023-10-09T16:13:34;9.80;99.90
23475;DHT22;11910;52.086;21.066;2023-10-09T16:15:59;9.70;99.90
23475;DHT22;11910;52.086;21.066;2023-10-09T16:18:26;9.60;99.90
23475;DHT22;11910;52.086;21.066;2023-10-09T16:20:55;9.50;99.90
23475;DHT22;11910;52.086;21.066;2023-10-09T16:23:21;9.50;99.90
23475;DHT22;11910;52.086;21.066;2023-10-09T16:25:47;9.40;99.90
23475;DHT22;11910;52.086;21.066;2023-10-09T16:28:12;9.30;99.90
23475;DHT22;11910;52.086;21.066;2023-10-09T16:30:41;9.20;99.90
23475;DHT22;11910;52.086;21.066;2023-10-09T16:33:07;9.00;99.90
23475;DHT22;11910;52.086;21.066;2023-10-09T16:35:35;8.90;99.90
23475;DHT22;11910;52.086;21.066;2023-10-09T16:38:03;8.80;99.90
23475;DHT22;11910;52.086;21.066;2023-10-09T16:40:37;8.70;99.90
23475;DHT22;11910;52.086;21.066;2023-10-09T16:43:02;8.70;99.90
23475;DHT22;11910;52.086;21.066;2023-10-09T16:45:28;8.70;99.90
23475;DHT22;11910;52.086;21.066;2023-10-09T16:47:54;8.60;99.90
23475;DHT22;11910;52.086;21.066;2023-10-09T16:50:24;8.50;99.90
23475;DHT22;11910;52.086;21.066;2023-10-09T16:52:53;8.40;99.90
23475;DHT22;11910;52.086;21.066;2023-10-09T16:55:19;8.30;99.90
23475;DHT22;11910;52.086;21.066;2023-10-09T16:57:45;8.20;99.90
23475;DHT22;11910;52.086;21.066;2023-10-09T17:00:18;8.10;99.90
23475;DHT22;11910;52.086;21.066;2023-10-09T17:03:03;8.00;99.90
23475;DHT22;11910;52.086;21.066;2023-10-09T17:05:36;7.90;99.90
23475;DHT22;11910;52.086;21.066;2023-10-09T17:08:16;7.90;99.90
23475;DHT22;11910;52.086;21.066;2023-10-09T17:10:44;7.80;99.90
23475;DHT22;11910;52.086;21.066;2023-10-09T17:13:11;7.80;99.90
23475;DHT22;11910;52.086;21.066;2023-10-09T17:15:55;7.80;99.90
23475;DHT22;11910;52.086;21.066;2023-10-09T17:18:21;7.70;99.90
23475;DHT22;11910;52.086;21.066;2023-10-09T17:20:50;7.60;99.90
23475;DHT22;11910;52.086;21.066;2023-10-09T17:23:16;7.60;99.90
23475;DHT22;11910;52.086;21.066;2023-10-09T17:25:41;7.50;99.90
23475;DHT22;11910;52.086;21.066;2023-10-09T17:28:11;7.50;99.90
23475;DHT22;11910;52.086;21.066;2023-10-09T17:30:43;7.40;99.90
23475;DHT22;11910;52.086;21.066;2023-10-09T17:33:09;7.40;99.90
23475;DHT22;11910;52.086;21.066;2023-10-09T17:35:35;7.30;99.90
23475;DHT22;11910;52.086;21.066;2023-10-09T17:38:01;7.20;99.90
23475;DHT22;11910;52.086;21.066;2023-10-09T17:40:28;7.20;99.90
23475;DHT22;11910;52.086;21.066;2023-10-09T17:42:54;7.10;99.90
23475;DHT22;11910;52.086;21.066;2023-10-09T17:45:21;7.10;99.90
23475;DHT22;11910;52.086;21.066;2023-10-09T17:47:47;7.10;99.90
23475;DHT22;11910;52.086;21.066;2023-10-09T17:50:14;7.00;99.90
23475;DHT22;11910;52.086;21.066;2023-10-09T17:52:40;7.00;99.90
23475;DHT22;11910;52.086;21.066;2023-10-09T17:55:05;6.90;99.90
23475;DHT22;11910;52.086;21.066;2023-10-09T17:57:36;6.90;99.90
23475;DHT22;11910;52.086;21.066;2023-10-09T18:00:02;6.90;99.90
23475;DHT22;11910;52.086;21.066;2023-10-09T18:02:41;6.90;99.90
23475;DHT22;11910;52.086;21.066;2023-10-09T18:05:07;6.90;99.90
23475;DHT22;11910;52.086;21.066;2023-10-09T18:07:34;6.90;99.90
23475;DHT22;11910;52.086;21.066;2023-10-09T18:10:00;6.80;99.90
23475;DHT22;11910;52.086;21.066;2023-10-09T18:12:30;6.90;99.90
23475;DHT22;11910;52.086;21.066;2023-10-09T18:14:57;7.00;99.90
23475;DHT22;11910;52.086;21.066;2023-10-09T18:17:25;7.00;99.90
23475;DHT22;11910;52.086;21.066;2023-10-09T18:19:52;7.00;99.90
23475;DHT22;11910;52.086;21.066;2023-10-09T18:22:18;7.00;99.90
23475;DHT22;11910;52.086;21.066;2023-10-09T18:24:45;7.00;99.90
23475;DHT22;11910;52.086;21.066;2023-10-09T18:27:10;7.00;99.90
23475;DHT22;11910;52.086;21.066;2023-10-09T18:29:42;7.00;99.90
23475;DHT22;11910;52.086;21.066;2023-10-09T18:32:14;7.00;99.90
23475;DHT22;11910;52.086;21.066;2023-10-09T18:34:40;7.00;99.90
23475;DHT22;11910;52.086;21.066;2023-10-09T18:37:05;7.00;99.90
23475;DHT22;11910;52.086;21.066;2023-10-09T18:39:34;7.10;99.90
23475;DHT22;11910;52.086;21.066;2023-10-09T18:42:02;7.10;99.90
23475;DHT22;11910;52.086;21.066;2023-10-09T18:44:28;7.20;99.90
23475;DHT22;11910;52.086;21.066;2023-10-09T18:46:54;7.20;99.90
23475;DHT22;11910;52.086;21.066;2023-10-09T18:49:21;7.20;99.90
23475;DHT22;11910;52.086;21.066;2023-10-09T18:51:48;7.30;99.90
23475;DHT22;11910;52.086;21.066;2023-10-09T18:54:14;7.40;99.90
23475;DHT22;11910;52.086;21.066;2023-10-09T18:56:39;7.40;99.90
23475;DHT22;11910;52.086;21.066;2023-10-09T18:59:05;7.40;99.90
23475;DHT22;11910;52.086;21.066;2023-10-09T19:01:34;7.40;99.90
23475;DHT22;11910;52.086;21.066;2023-10-09T19:04:03;7.50;99.90
23475;DHT22;11910;52.086;21.066;2023-10-09T19:06:36;7.50;99.90